createdAt,value
2022-08-17T00:00:43.332Z,20.15
2022-08-17T00:03:54.234Z,20.09
2022-08-17T00:07:07.478Z,19.97
2022-08-17T00:10:23.348Z,20.06
2022-08-17T00:13:35.443Z,19.91
2022-08-17T00:16:57.443Z,19.98
2022-08-17T00:20:05.828Z,19.76
2022-08-17T00:23:22.111Z,19.83
2022-08-17T00:26:43.686Z,19.74
2022-08-17T00:29:52.763Z,19.84
2022-08-17T00:33:14.307Z,19.76
2022-08-17T00:36:25.207Z,19.82
2022-08-17T00:39:31.155Z,19.86
2022-08-17T00:42:39.303Z,19.87
2022-08-17T00:45:45.063Z,19.92
2022-08-17T00:48:52.759Z,19.94
2022-08-17T00:52:11.832Z,19.98
2022-08-17T00:55:19.310Z,19.97
2022-08-17T00:58:30.418Z,19.89
2022-08-17T01:01:42.718Z,19.96
2022-08-17T01:04:51.873Z,19.97
2022-08-17T01:08:00.818Z,19.93
2022-08-17T01:11:06.488Z,19.77
2022-08-17T01:14:11.640Z,19.91
2022-08-17T01:17:19.941Z,19.81
2022-08-17T01:20:30.448Z,19.73
2022-08-17T01:23:53.907Z,19.66
2022-08-17T01:27:00.523Z,19.83
2022-08-17T01:30:58.839Z,19.86
2022-08-17T01:33:51.729Z,19.81
2022-08-17T01:36:55.669Z,19.78
2022-08-17T01:40:15.637Z,19.77
2022-08-17T01:43:28.928Z,19.85
2022-08-17T01:46:38.055Z,19.77
2022-08-17T01:49:41.936Z,19.89
2022-08-17T01:52:50.070Z,19.89
2022-08-17T01:56:03.291Z,19.97
2022-08-17T01:59:14.090Z,20.08
2022-08-17T02:02:31.197Z,19.96
2022-08-17T02:05:41.598Z,20.10
2022-08-17T02:09:01.703Z,20.13
2022-08-17T02:12:38.415Z,20.08
2022-08-17T02:15:38.926Z,20.00
2022-08-17T02:18:43.675Z,19.91
2022-08-17T02:21:52.558Z,19.79
2022-08-17T02:25:02.169Z,19.88
2022-08-17T02:28:08.371Z,19.64
2022-08-17T02:31:15.528Z,19.44
2022-08-17T02:34:21.372Z,19.85
2022-08-17T02:37:30.619Z,19.59
2022-08-17T02:40:38.883Z,19.89
2022-08-17T02:43:43.322Z,19.82
2022-08-17T02:46:48.889Z,19.81
2022-08-17T02:49:59.358Z,19.77
2022-08-17T02:53:06.570Z,19.83
2022-08-17T02:56:13.110Z,19.68
2022-08-17T02:59:17.068Z,19.64
2022-08-17T03:02:25.699Z,19.41
2022-08-17T03:05:31.581Z,19.46
2022-08-17T03:08:41.122Z,19.43
2022-08-17T03:11:53.103Z,19.46
2022-08-17T03:15:05.032Z,19.49
2022-08-17T03:18:18.976Z,19.24
2022-08-17T03:21:33.468Z,19.57
2022-08-17T03:24:41.963Z,19.55
2022-08-17T03:27:54.097Z,19.50
2022-08-17T03:31:03.701Z,19.39
2022-08-17T03:34:11.427Z,19.41
2022-08-17T03:37:17.633Z,19.12
2022-08-17T03:40:34.415Z,19.33
2022-08-17T03:43:47.667Z,19.18
2022-08-17T03:47:12.090Z,18.74
2022-08-17T03:50:38.061Z,18.77
2022-08-17T03:54:10.599Z,19.08
2022-08-17T03:57:16.852Z,19.00
2022-08-17T04:00:23.751Z,18.95
2022-08-17T04:03:29.570Z,18.92
2022-08-17T04:06:33.459Z,18.89
2022-08-17T04:09:37.978Z,18.97
2022-08-17T04:12:50.637Z,19.05
2022-08-17T04:16:00.224Z,19.08
2022-08-17T04:19:07.535Z,19.27
2022-08-17T04:22:32.445Z,19.19
2022-08-17T04:25:45.959Z,19.34
2022-08-17T04:28:56.567Z,19.39
2022-08-17T04:32:03.821Z,18.97
2022-08-17T04:35:12.419Z,19.39
2022-08-17T04:38:22.504Z,19.45
2022-08-17T04:41:52.433Z,19.60
2022-08-17T04:45:09.467Z,19.54
2022-08-17T04:48:16.124Z,19.63
2022-08-17T04:51:30.598Z,19.61
2022-08-17T04:54:39.679Z,19.82
2022-08-17T04:57:46.052Z,19.89
2022-08-17T05:00:53.071Z,19.94
2022-08-17T05:04:00.640Z,20.07
2022-08-17T05:07:31.286Z,20.19
2022-08-17T05:10:45.214Z,20.38
2022-08-17T05:13:59.217Z,20.52
2022-08-17T05:17:07.481Z,20.66
2022-08-17T05:20:18.819Z,20.73
2022-08-17T05:23:34.960Z,20.69
2022-08-17T05:26:50.521Z,20.93
2022-08-17T05:30:06.130Z,20.91
2022-08-17T05:33:21.181Z,21.18
2022-08-17T05:36:37.919Z,21.42
2022-08-17T05:39:48.017Z,21.54
2022-08-17T05:42:53.049Z,21.68
2022-08-17T05:46:22.179Z,21.78
2022-08-17T05:49:28.655Z,22.01
2022-08-17T05:53:03.712Z,22.15
2022-08-17T05:56:30.413Z,22.12
2022-08-17T05:59:40.623Z,22.33
2022-08-17T06:03:17.064Z,22.53
2022-08-17T06:06:56.795Z,22.73
2022-08-17T06:10:13.323Z,22.89
2022-08-17T06:13:20.717Z,23.05
2022-08-17T06:16:34.259Z,23.18
2022-08-17T06:19:45.304Z,23.17
2022-08-17T06:22:58.888Z,23.34
2022-08-17T06:26:11.561Z,23.34
2022-08-17T06:29:40.989Z,23.59
2022-08-17T06:32:46.276Z,23.79
2022-08-17T06:36:02.839Z,23.81
2022-08-17T06:39:34.123Z,23.96
2022-08-17T06:43:01.992Z,23.98
2022-08-17T06:46:34.766Z,24.19
2022-08-17T06:49:42.471Z,24.28
2022-08-17T06:53:03.553Z,24.50
2022-08-17T06:56:10.280Z,24.48
2022-08-17T06:59:18.666Z,24.79
2022-08-17T07:02:51.544Z,24.92
2022-08-17T07:06:06.253Z,24.84
2022-08-17T07:09:38.794Z,25.05
2022-08-17T07:12:43.223Z,25.04
2022-08-17T07:15:52.752Z,25.29
2022-08-17T07:18:59.668Z,25.37
2022-08-17T07:22:02.228Z,25.45
2022-08-17T07:25:09.155Z,25.58
2022-08-17T07:28:13.042Z,25.76
2022-08-17T07:31:17.564Z,25.92
2022-08-17T07:34:20.213Z,25.98
2022-08-17T07:37:23.308Z,25.93
2022-08-17T07:40:35.362Z,26.11
2022-08-17T07:43:41.148Z,26.32
2022-08-17T07:47:11.639Z,26.56
2022-08-17T07:50:28.232Z,26.52
2022-08-17T07:53:31.979Z,26.85
2022-08-17T07:56:49.083Z,27.01
2022-08-17T08:00:01.725Z,27.02
2022-08-17T08:03:16.650Z,27.13
2022-08-17T08:06:26.381Z,27.26
2022-08-17T08:09:40.344Z,27.42
2022-08-17T08:12:46.961Z,27.56
2022-08-17T08:16:11.775Z,27.77
2022-08-17T08:19:20.881Z,27.78
2022-08-17T08:22:34.995Z,27.98
2022-08-17T08:25:37.921Z,28.12
2022-08-17T08:29:10.947Z,28.29
2022-08-17T08:32:23.156Z,28.35
2022-08-17T08:35:30.933Z,28.40
2022-08-17T08:38:48.796Z,28.79
2022-08-17T08:41:58.944Z,28.82
2022-08-17T08:45:19.691Z,29.05
2022-08-17T08:48:55.823Z,29.29
2022-08-17T08:52:04.565Z,29.32
2022-08-17T08:55:07.909Z,29.44
2022-08-17T08:58:32.198Z,29.63
2022-08-17T09:02:07.964Z,29.62
2022-08-17T09:05:30.896Z,29.85
2022-08-17T09:08:33.551Z,29.95
2022-08-17T09:12:04.062Z,30.13
2022-08-17T09:15:27.696Z,30.27
2022-08-17T09:19:00.665Z,30.43
2022-08-17T09:22:38.385Z,30.41
2022-08-17T09:25:56.221Z,30.55
2022-08-17T09:29:05.664Z,30.69
2022-08-17T09:32:39.258Z,30.54
2022-08-17T09:35:51.399Z,30.83
2022-08-17T09:39:02.129Z,31.15
2022-08-17T09:42:14.845Z,31.35
2022-08-17T09:45:31.176Z,31.45
2022-08-17T09:49:01.927Z,31.43
2022-08-17T09:52:17.741Z,31.57
2022-08-17T09:55:23.133Z,31.69
2022-08-17T09:58:41.288Z,31.81
2022-08-17T10:01:53.605Z,31.81
2022-08-17T10:05:21.053Z,31.53
2022-08-17T10:08:36.736Z,31.33
2022-08-17T10:12:17.438Z,31.39
2022-08-17T10:15:37.449Z,31.49
2022-08-17T10:18:54.949Z,32.15
2022-08-17T10:22:35.346Z,31.86
2022-08-17T10:26:06.275Z,31.52
2022-08-17T10:29:19.870Z,31.18
2022-08-17T10:32:35.813Z,30.94
2022-08-17T10:36:01.506Z,31.32
2022-08-17T10:39:36.542Z,31.43
2022-08-17T10:43:01.131Z,31.31
2022-08-17T10:46:30.120Z,31.30
2022-08-17T10:49:38.702Z,31.91
2022-08-17T10:52:41.991Z,31.57
2022-08-17T10:56:13.549Z,31.46
2022-08-17T10:59:35.061Z,31.17
2022-08-17T11:02:54.522Z,31.36
2022-08-17T11:05:58.907Z,31.99
2022-08-17T11:09:23.244Z,31.96
2022-08-17T11:12:51.670Z,31.73
2022-08-17T11:16:09.711Z,32.34
2022-08-17T11:19:32.022Z,32.80
2022-08-17T11:22:43.709Z,33.10
2022-08-17T11:26:25.914Z,33.26
2022-08-17T11:30:01.517Z,33.38
2022-08-17T11:33:41.246Z,33.20
2022-08-17T11:37:14.660Z,33.55
2022-08-17T11:40:55.771Z,33.31
2022-08-17T11:44:24.636Z,33.66
2022-08-17T11:48:26.148Z,33.84
2022-08-17T11:51:33.796Z,33.45
2022-08-17T11:54:39.120Z,33.62
2022-08-17T11:57:41.710Z,33.91
2022-08-17T12:00:49.536Z,34.07
2022-08-17T12:04:21.861Z,34.29
2022-08-17T12:07:25.072Z,34.14
2022-08-17T12:10:51.849Z,34.04
2022-08-17T12:13:58.313Z,33.69
2022-08-17T12:17:11.261Z,33.67
2022-08-17T12:20:33.612Z,33.63
2022-08-17T12:23:50.453Z,34.31
2022-08-17T12:26:58.258Z,34.67
2022-08-17T12:30:09.798Z,34.86
2022-08-17T12:33:25.483Z,34.91
2022-08-17T12:36:33.235Z,34.98
2022-08-17T12:39:52.390Z,34.97
2022-08-17T12:42:58.403Z,34.94
2022-08-17T12:46:08.429Z,34.96
2022-08-17T12:49:24.040Z,34.18
2022-08-17T12:52:29.539Z,34.46
2022-08-17T12:55:37.101Z,34.51
2022-08-17T12:58:49.082Z,34.66
2022-08-17T13:01:52.720Z,34.64
2022-08-17T13:04:58.590Z,34.60
2022-08-17T13:08:05.920Z,34.83
2022-08-17T13:11:14.704Z,34.77
2022-08-17T13:14:18.726Z,34.95
2022-08-17T13:17:36.223Z,34.65
2022-08-17T13:20:39.717Z,35.08
2022-08-17T13:23:53.619Z,35.11
2022-08-17T13:27:08.234Z,35.09
2022-08-17T13:30:12.511Z,35.24
2022-08-17T13:33:44.703Z,35.07
2022-08-17T13:36:50.671Z,35.00
2022-08-17T13:40:20.542Z,35.04
2022-08-17T13:43:45.115Z,35.06
2022-08-17T13:46:52.497Z,34.99
2022-08-17T13:49:59.854Z,35.28
2022-08-17T13:53:03.333Z,34.90
2022-08-17T13:56:38.849Z,34.24
2022-08-17T13:59:54.867Z,34.63
2022-08-17T14:02:59.144Z,34.90
2022-08-17T14:06:05.685Z,35.21
2022-08-17T14:09:09.002Z,35.45
2022-08-17T14:12:17.811Z,34.93
2022-08-17T14:15:23.227Z,35.32
2022-08-17T14:18:55.658Z,35.49
2022-08-17T14:21:49.929Z,35.55
2022-08-17T14:24:53.067Z,35.18
2022-08-17T14:27:56.423Z,35.34
2022-08-17T14:31:00.876Z,34.93
2022-08-17T14:34:03.671Z,35.34
2022-08-17T14:37:06.662Z,35.30
2022-08-17T14:40:13.357Z,34.90
2022-08-17T14:43:18.027Z,35.33
2022-08-17T14:46:20.702Z,35.73
2022-08-17T14:49:24.001Z,35.77
2022-08-17T14:52:26.898Z,35.55
2022-08-17T14:55:31.173Z,35.82
2022-08-17T14:58:33.811Z,35.58
2022-08-17T15:01:36.983Z,35.51
2022-08-17T15:04:44.950Z,35.57
2022-08-17T15:07:48.747Z,35.64
2022-08-17T15:10:54.303Z,35.83
2022-08-17T15:13:57.412Z,35.56
2022-08-17T15:17:00.084Z,35.34
2022-08-17T15:20:05.901Z,35.32
2022-08-17T15:23:13.708Z,35.66
2022-08-17T15:26:16.906Z,35.55
2022-08-17T15:29:19.563Z,35.13
2022-08-17T15:32:31.084Z,35.17
2022-08-17T15:35:34.005Z,35.43
2022-08-17T15:38:39.725Z,35.30
2022-08-17T15:41:42.496Z,35.29
2022-08-17T15:44:45.934Z,35.18
2022-08-17T15:47:48.587Z,35.36
2022-08-17T15:50:52.480Z,35.13
2022-08-17T15:54:04.483Z,34.92
2022-08-17T15:57:20.293Z,35.05
2022-08-17T16:00:28.361Z,35.22
2022-08-17T16:04:01.602Z,35.38
2022-08-17T16:06:55.636Z,35.20
2022-08-17T16:09:58.671Z,34.67
2022-08-17T16:13:01.500Z,34.29
2022-08-17T16:16:04.587Z,34.43
2022-08-17T16:19:07.241Z,34.40
2022-08-17T16:22:12.706Z,34.53
2022-08-17T16:25:53.174Z,34.60
2022-08-17T16:28:52.671Z,34.59
2022-08-17T16:31:56.429Z,34.57
2022-08-17T16:35:09.328Z,34.53
2022-08-17T16:38:12.542Z,34.23
2022-08-17T16:41:35.938Z,33.66
2022-08-17T16:44:38.557Z,33.18
2022-08-17T16:47:42.070Z,32.75
2022-08-17T16:51:02.062Z,32.38
2022-08-17T16:54:08.315Z,31.94
2022-08-17T16:57:12.324Z,31.77
2022-08-17T17:00:16.795Z,31.47
2022-08-17T17:03:24.743Z,31.30
2022-08-17T17:06:36.066Z,31.08
2022-08-17T17:09:39.199Z,30.81
2022-08-17T17:13:02.071Z,30.57
2022-08-17T17:16:17.281Z,30.38
2022-08-17T17:19:35.150Z,30.27
2022-08-17T17:23:18.384Z,30.08
2022-08-17T17:26:40.192Z,29.96
2022-08-17T17:30:05.010Z,29.77
2022-08-17T17:33:19.215Z,29.61
2022-08-17T17:36:40.433Z,29.34
2022-08-17T17:39:50.095Z,29.20
2022-08-17T17:42:56.503Z,29.05
2022-08-17T17:46:27.480Z,28.90
2022-08-17T17:49:38.316Z,28.75
2022-08-17T17:52:47.428Z,28.53
2022-08-17T17:56:03.884Z,28.40
2022-08-17T17:59:27.182Z,28.15
2022-08-17T18:02:53.168Z,28.04
2022-08-17T18:06:18.635Z,27.84
2022-08-17T18:09:22.634Z,27.66
2022-08-17T18:12:40.628Z,27.55
2022-08-17T18:15:54.051Z,27.46
2022-08-17T18:18:57.864Z,27.40
2022-08-17T18:22:14.294Z,27.32
2022-08-17T18:25:49.805Z,27.02
2022-08-17T18:28:53.766Z,26.91
2022-08-17T18:32:34.079Z,26.92
2022-08-17T18:35:36.874Z,26.74
2022-08-17T18:38:42.614Z,26.62
2022-08-17T18:41:50.002Z,26.50
2022-08-17T18:44:55.466Z,26.46
2022-08-17T18:47:58.303Z,26.34
2022-08-17T18:51:39.778Z,26.20
2022-08-17T18:55:22.125Z,26.00
2022-08-17T18:58:25.656Z,25.90
2022-08-17T19:01:47.145Z,25.87
2022-08-17T19:05:07.867Z,25.92
2022-08-17T19:08:36.884Z,25.87
2022-08-17T19:11:39.977Z,25.77
2022-08-17T19:14:43.595Z,25.62
2022-08-17T19:18:02.110Z,25.58
2022-08-17T19:21:15.069Z,25.40
2022-08-17T19:24:26.553Z,25.45
2022-08-17T19:27:41.942Z,25.43
2022-08-17T19:30:55.396Z,25.30
2022-08-17T19:34:00.529Z,25.29
2022-08-17T19:37:25.580Z,25.31
2022-08-17T19:40:55.697Z,25.25
2022-08-17T19:44:13.786Z,25.16
2022-08-17T19:47:55.111Z,25.11
2022-08-17T19:51:17.901Z,25.08
2022-08-17T19:54:35.749Z,25.06
2022-08-17T19:57:49.539Z,25.06
2022-08-17T20:00:55.171Z,25.03
2022-08-17T20:04:06.909Z,24.89
2022-08-17T20:07:17.862Z,24.89
2022-08-17T20:10:30.561Z,24.86
2022-08-17T20:13:51.876Z,24.81
2022-08-17T20:16:59.278Z,24.78
2022-08-17T20:20:27.902Z,24.70
2022-08-17T20:23:57.522Z,24.56
2022-08-17T20:27:12.041Z,24.50
2022-08-17T20:30:24.465Z,24.42
2022-08-17T20:33:32.596Z,24.35
2022-08-17T20:36:36.988Z,24.28
2022-08-17T20:39:52.701Z,24.24
2022-08-17T20:42:57.691Z,24.17
2022-08-17T20:46:31.265Z,24.13
2022-08-17T20:49:50.443Z,24.15
2022-08-17T20:52:59.241Z,24.03
2022-08-17T20:56:02.331Z,24.09
2022-08-17T20:59:05.097Z,24.11
2022-08-17T21:02:17.639Z,24.09
2022-08-17T21:05:59.710Z,24.06
2022-08-17T21:09:12.567Z,23.96
2022-08-17T21:12:48.000Z,23.91
2022-08-17T21:15:53.645Z,23.89
2022-08-17T21:18:56.208Z,23.89
2022-08-17T21:22:33.729Z,23.86
2022-08-17T21:26:09.913Z,23.75
2022-08-17T21:29:31.779Z,23.62
2022-08-17T21:32:37.555Z,23.50
2022-08-17T21:35:49.176Z,23.41
2022-08-17T21:39:00.312Z,23.36
2022-08-17T21:42:05.960Z,23.26
2022-08-17T21:45:18.084Z,23.24
2022-08-17T21:48:24.622Z,23.14
2022-08-17T21:51:29.129Z,23.18
2022-08-17T21:54:40.022Z,23.20
2022-08-17T21:57:52.789Z,23.19
2022-08-17T22:01:26.692Z,23.05
2022-08-17T22:04:31.104Z,23.02
2022-08-17T22:07:39.846Z,22.88
2022-08-17T22:10:48.450Z,22.80
2022-08-17T22:13:51.465Z,22.75
2022-08-17T22:17:21.324Z,22.74
2022-08-17T22:20:24.329Z,22.72
2022-08-17T22:23:58.689Z,22.78
2022-08-17T22:27:12.958Z,22.80
2022-08-17T22:30:27.665Z,22.55
2022-08-17T22:33:33.416Z,22.68
2022-08-17T22:36:38.818Z,22.68
2022-08-17T22:39:41.820Z,22.63
2022-08-17T22:42:49.509Z,22.68
2022-08-17T22:45:54.678Z,22.66
2022-08-17T22:48:59.564Z,22.58
2022-08-17T22:52:06.815Z,22.48
2022-08-17T22:55:36.475Z,22.52
2022-08-17T22:59:17.586Z,22.51
2022-08-17T23:02:26.769Z,22.43
2022-08-17T23:05:29.581Z,22.32
2022-08-17T23:08:35.695Z,22.31
2022-08-17T23:11:49.757Z,22.26
2022-08-17T23:15:00.496Z,22.16
2022-08-17T23:18:04.856Z,22.13
2022-08-17T23:21:07.828Z,22.16
2022-08-17T23:24:14.820Z,22.18
2022-08-17T23:27:19.886Z,22.18
2022-08-17T23:30:25.461Z,22.21
2022-08-17T23:33:31.021Z,22.11
2022-08-17T23:36:33.694Z,22.14
2022-08-17T23:39:37.722Z,22.11
2022-08-17T23:42:43.722Z,22.10
2022-08-17T23:45:49.440Z,22.11
2022-08-17T23:48:54.210Z,22.04
2022-08-17T23:51:59.371Z,22.04
2022-08-17T23:55:02.035Z,22.02
2022-08-17T23:58:05.502Z,22.03
